Flight Track Log - Related Links

Times and Time Zones

All times are in EDT time to prevent confusion due to time zone crossing. See the N778AN flight status page for this flight to view local times or setup timezone preferences in your user account.

Time Position Orientation Groundspeed Altitude Reporting Facility
EDT Latitude Longitude Course Direction KTS MPH feet Rate Location/Type
Thu 09:54:47 PM 25.7870 -80.2860 90° East 191 220 300  Level FlightAware ADS-B
Thu 09:55:12 PM 25.7880 -80.2610 87° East 174 200 2,000 2,618 Climbing FlightAware ADS-B
Thu 09:55:42 PM 25.7890 -80.2330 88° East 200 230 2,700 1,333 Climbing FlightAware ADS-B
Thu 09:55:57 PM 25.7900 -80.2180 86° East 222 255 3,000 1,200 Climbing FlightAware ADS-B
Thu 09:56:22 PM 25.7920 -80.1850 86° East 255 293 3,500 1,855 Climbing FlightAware ADS-B
Thu 09:56:52 PM 25.7970 -80.1440 82° East 271 312 4,700 2,267 Climbing FlightAware ADS-B
Thu 09:57:07 PM 25.8050 -80.1270 62° Northeast 275 316 5,200 2,400 Climbing FlightAware ADS-B
Thu 09:57:22 PM 25.8180 -80.1090 51° Northeast 278 320 5,900 2,700 Climbing FlightAware ADS-B
Thu 09:57:47 PM 25.8350 -80.0780 59° Northeast 288 331 7,000 2,550 Climbing FlightAware ADS-B
Thu 09:58:02 PM 25.8450 -80.0590 60° Northeast 291 335 7,600 2,267 Climbing FlightAware ADS-B
Thu 09:58:32 PM 25.8660 -80.0200 59° Northeast 303 349 8,700 2,400 Climbing FlightAware ADS-B
Thu 09:58:42 PM 25.8740 -80.0070 56° Northeast 302 348 9,200 2,618 Climbing FlightAware ADS-B
Thu 09:59:27 PM 25.9070 -79.9510 57° Northeast 314 361 11,100 2,188 Climbing FlightAware ADS-B
Thu 10:00:07 PM 25.9420 -79.8930 56° Northeast 337 388 12,300 1,950 Climbing FlightAware ADS-B
Thu 10:00:47 PM 25.9760 -79.8340 57° Northeast 355 409 13,700 2,047 Climbing FlightAware ADS-B
Thu 10:01:32 PM 26.0180 -79.7640 56° Northeast 370 426 15,200 2,067 Climbing FlightAware ADS-B
Thu 10:02:17 PM 26.0630 -79.6900 56° Northeast 380 437 16,800 1,765 Climbing FlightAware ADS-B
Thu 10:02:57 PM 26.1120 -79.6290 48° Northeast 404 465 17,700 1,725 Climbing FlightAware ADS-B
Thu 10:03:37 PM 26.1660 -79.5660 46° Northeast 421 484 19,100 1,906 Climbing FlightAware ADS-B
Thu 10:04:22 PM 26.2280 -79.4960 45° Northeast 433 498 20,400 1,976 Climbing FlightAware ADS-B
Thu 10:05:02 PM 26.2850 -79.4300 46° Northeast 436 502 21,900 2,047 Climbing FlightAware ADS-B
Thu 10:05:47 PM 26.3500 -79.3560 46° Northeast 445 512 23,300 1,835 Climbing FlightAware ADS-B
Thu 10:06:27 PM 26.4100 -79.2870 46° Northeast 454 522 24,500 1,650 Climbing FlightAware ADS-B
Thu 10:07:07 PM 26.4660 -79.2220 46° Northeast 460 529 25,500 1,412 Climbing FlightAware ADS-B
Thu 10:07:52 PM 26.5310 -79.1480 46° Northeast 469 540 26,500 1,275 Climbing FlightAware ADS-B
Thu 10:08:27 PM 26.5830 -79.0890 45° Northeast 468 539 27,200 1,200 Climbing FlightAware ADS-B
Thu 10:09:12 PM 26.6520 -79.0080 46° Northeast 485 558 28,100 1,133 Climbing FlightAware ADS-B
Thu 10:09:57 PM 26.7230 -78.9260 46° Northeast 490 564 28,900 1,200 Climbing FlightAware ADS-B
Thu 10:10:32 PM 26.7840 -78.8550 46° Northeast 500 575 29,700 1,271 Climbing FlightAware ADS-B
Thu 10:11:22 PM 26.8610 -78.7660 46° Northeast 507 583 30,700 1,000 Climbing FlightAware ADS-B
Thu 10:12:02 PM 26.9240 -78.6930 46° Northeast 516 594 31,200 825 Climbing FlightAware ADS-B
Thu 10:12:42 PM 26.9960 -78.6090 46° Northeast 520 598 31,800 1,200 Climbing FlightAware ADS-B
Thu 10:13:27 PM 27.0680 -78.5260 46° Northeast 517 595 32,900 1,624 Climbing FlightAware ADS-B
Thu 10:14:07 PM 27.1380 -78.4430 47° Northeast 515 593 34,100 1,440 Climbing FlightAware ADS-B
Thu 10:14:42 PM 27.1960 -78.3760 46° Northeast 518 596 34,700 847 Climbing FlightAware ADS-B
Thu 10:15:32 PM 27.2800 -78.2770 46° Northeast 518 596 35,300 467 Climbing FlightAware ADS-B
Thu 10:16:12 PM 27.3350 -78.2100 47° Northeast 518 596 35,400 75 Climbing FlightAware ADS-B
Thu 10:16:52 PM 27.3910 -78.1430 47° Northeast 518 596 35,400  Level FlightAware ADS-B
Thu 10:17:32 PM 27.4460 -78.0760 47° Northeast 518 596 35,400  Level FlightAware ADS-B
Thu 10:18:22 PM 27.5160 -77.9920 47° Northeast 518 596 35,400  Level FlightAware ADS-B
Thu 10:19:02 PM 27.5710 -77.9250 47° Northeast 518 596 35,400  Level FlightAware ADS-B
Thu 10:19:42 PM 27.6270 -77.8580 47° Northeast 518 596 35,400  Level FlightAware ADS-B
Thu 10:20:22 PM 27.6820 -77.7900 48° Northeast 518 596 35,400  Level FlightAware ADS-B
Thu 10:21:02 PM 27.7380 -77.7230 47° Northeast 518 596 35,400  Level FlightAware ADS-B
Thu 10:21:52 PM 27.8070 -77.6390 47° Northeast 518 596 35,400  Level FlightAware ADS-B
Thu 10:22:32 PM 27.8630 -77.5710 47° Northeast 518 596 35,400  Level FlightAware ADS-B
Thu 10:23:12 PM 27.9180 -77.5040 47° Northeast 518 596 35,400  Level FlightAware ADS-B
Thu 10:23:52 PM 27.9740 -77.4370 47° Northeast 518 596 35,400  Level FlightAware ADS-B
Thu 10:24:32 PM 28.0300 -77.3690 47° Northeast 518 596 35,400  Level FlightAware ADS-B
Thu 10:25:22 PM 28.0990 -77.2850 47° Northeast 518 596 35,400 826 Level FlightAware ADS-B
Thu 10:26:21 PM 28.3442 -77.0072 47° Northeast 505 581 36,900 756 Climbing Miami Center
Thu 10:27:21 PM 28.4403 -76.8892 47° Northeast 515 593 36,900 50 Level Miami Center
Thu 10:28:21 PM 28.5511 -76.7592 46° Northeast 520 598 37,000 50 Climbing Miami Center
Thu 10:29:21 PM 28.6364 -76.6503 48° Northeast 515 593 37,000 -50 Level Miami Center
Thu 10:30:21 PM 28.7386 -76.5294 46° Northeast 515 593 36,900  Descending Miami Center
Thu 10:31:21 PM 28.8300 -76.4036 50° Northeast 515 593 37,000 58 Climbing Miami Center
Thu 10:32:04 PM 28.7167 -76.5667 50° Northeast 517 595 37,000  Level New York Oceanic (ODAPS)
Thu 10:33:34 PM 29.0333 -76.1167 50° Northeast 518 596 37,000  Level New York Oceanic (ODAPS)
Thu 10:39:00 PM 29.5610 -75.3900 50° Northeast 518 596 37,000  Level FlightAware Transoceanic
Thu 10:40:00 PM 29.6486 -75.2681 50° Northeast 518 596 37,000  Level FlightAware Transoceanic
Thu 10:41:00 PM 29.7360 -75.1460 51° Northeast 518 596 37,000  Level FlightAware Transoceanic
Thu 10:42:00 PM 29.8234 -75.0238 51° Northeast 518 596 37,000  Level FlightAware Transoceanic
Thu 10:43:00 PM 29.9106 -74.9013 51° Northeast 518 596 37,000  Level FlightAware Transoceanic
Thu 10:44:00 PM 29.9977 -74.7786 51° Northeast 518 596 37,000  Level FlightAware Transoceanic
Thu 10:45:00 PM 30.0847 -74.6557 51° Northeast 518 596 37,000  Level FlightAware Transoceanic
Thu 10:46:00 PM 30.1716 -74.5325 51° Northeast 518 596 37,000  Level FlightAware Transoceanic
Thu 10:47:00 PM 30.2584 -74.4092 51° Northeast 518 596 37,000  Level FlightAware Transoceanic
Thu 10:48:00 PM 30.3450 -74.2856 51° Northeast 518 596 37,000  Level FlightAware Transoceanic
Thu 10:48:25 PM 30.2833 -74.3667 51° Northeast 501 577 37,000  Level New York Oceanic (ODAPS)
Thu 10:49:00 PM 30.4315 -74.1618 51° Northeast 518 596 37,000  Level FlightAware Transoceanic
Thu 10:50:00 PM 30.5180 -74.0378 51° Northeast 518 596 37,000  Level FlightAware Transoceanic
Thu 10:50:52 PM 30.5833 -73.9500 51° Northeast 496 571 37,000  Level New York Oceanic (ODAPS)
Thu 10:51:00 PM 30.6043 -73.9136 51° Northeast 518 596 37,000  Level FlightAware Transoceanic
Thu 10:52:00 PM 30.6904 -73.7891 51° Northeast 518 596 37,000  Level FlightAware Transoceanic
Thu 10:53:00 PM 30.7765 -73.6644 51° Northeast 518 596 37,000  Level FlightAware Transoceanic
Thu 10:54:00 PM 30.8824 -73.5049 51° Northeast 501 577 37,000  Level FlightAware Transoceanic
Thu 10:55:00 PM 30.9674 -73.3809 51° Northeast 501 577 37,000  Level FlightAware Transoceanic
Thu 10:56:00 PM 31.0524 -73.2567 51° Northeast 501 577 37,000  Level FlightAware Transoceanic
Thu 10:57:00 PM 31.1027 -73.1934 52° Northeast 496 571 37,000  Level FlightAware Transoceanic
Thu 10:58:00 PM 31.1889 -73.0665 52° Northeast 496 571 37,000  Level FlightAware Transoceanic
Thu 10:59:00 PM 31.2749 -72.9394 52° Northeast 496 571 37,000  Level FlightAware Transoceanic
Thu 11:00:00 PM 31.3608 -72.8120 52° Northeast 496 571 37,000  Level FlightAware Transoceanic
Thu 11:01:00 PM 31.4465 -72.6844 52° Northeast 496 571 37,000  Level FlightAware Transoceanic
Thu 11:01:32 PM 31.4833 -72.6333 52° Northeast 491 565 37,000  Level New York Oceanic (ODAPS)
Thu 11:02:00 PM 31.5322 -72.5566 52° Northeast 496 571 37,000  Level FlightAware Transoceanic
Thu 11:03:00 PM 31.6177 -72.4285 52° Northeast 496 571 37,000  Level FlightAware Transoceanic
Thu 11:04:00 PM 31.7030 -72.3002 52° Northeast 496 571 37,000  Level FlightAware Transoceanic
Thu 11:05:00 PM 31.7883 -72.1717 52° Northeast 496 571 37,000  Level FlightAware Transoceanic
Thu 11:06:00 PM 31.8734 -72.0429 52° Northeast 496 571 37,000  Level FlightAware Transoceanic
Thu 11:07:00 PM 31.9849 -71.8763 52° Northeast 491 565 37,000  Level FlightAware Transoceanic
Thu 11:08:00 PM 32.0681 -71.7494 52° Northeast 491 565 37,000  Level FlightAware Transoceanic
Thu 11:08:17 PM 32.0500 -71.7833 52° Northeast 487 560 37,000  Level New York Oceanic (ODAPS)
Thu 11:09:00 PM 32.1511 -71.6222 52° Northeast 491 565 37,000  Level FlightAware Transoceanic
Thu 11:10:00 PM 32.2341 -71.4947 52° Northeast 491 565 37,000  Level FlightAware Transoceanic
Thu 11:11:00 PM 32.3168 -71.3671 53° Northeast 491 565 37,000  Level FlightAware Transoceanic
Thu 11:12:00 PM 32.3995 -71.2392 53° Northeast 491 565 37,000  Level FlightAware Transoceanic
Thu 11:13:00 PM 32.4820 -71.1110 53° Northeast 491 565 37,000  Level FlightAware Transoceanic
Thu 11:14:00 PM 32.5537 -71.0033 53° Northeast 487 560 37,000  Level FlightAware Transoceanic
Thu 11:15:00 PM 32.6371 -70.8724 53° Northeast 487 560 37,000  Level FlightAware Transoceanic
Thu 11:15:28 PM 32.6333 -70.8833 53° Northeast 482 555 37,000  Level New York Oceanic (ODAPS)
Thu 11:16:00 PM 32.7205 -70.7413 53° Northeast 487 560 37,000  Level FlightAware Transoceanic
Thu 11:17:00 PM 32.8037 -70.6099 53° Northeast 487 560 37,000  Level FlightAware Transoceanic
Thu 11:18:00 PM 32.8868 -70.4784 53° Northeast 487 560 37,000  Level FlightAware Transoceanic
Thu 11:19:00 PM 32.9697 -70.3465 53° Northeast 487 560 37,000  Level FlightAware Transoceanic
Thu 11:20:00 PM 33.0525 -70.2144 53° Northeast 487 560 37,000  Level FlightAware Transoceanic
Thu 11:21:00 PM 33.1342 -70.0848 53° Northeast 482 555 37,000  Level FlightAware Transoceanic
Thu 11:22:00 PM 33.2172 -69.9509 54° Northeast 482 555 37,000  Level FlightAware Transoceanic
Thu 11:23:00 PM 33.3000 -69.8167 53° Northeast 482 555 37,000  Level FlightAware Transoceanic
Thu 11:23:57 PM 33.3000 -69.8167 53° Northeast 480 552 37,000  Level New York Oceanic (ODAPS)
Thu 11:24:00 PM 33.3771 -69.6924 53° Northeast 482 555 37,000  Level FlightAware Transoceanic
Thu 11:25:00 PM 33.4542 -69.5679 53° Northeast 482 555 37,000  Level FlightAware Transoceanic
Thu 11:26:00 PM 33.5311 -69.4432 54° Northeast 482 555 37,000  Level FlightAware Transoceanic
Thu 11:27:00 PM 33.6078 -69.3182 54° Northeast 482 555 37,000  Level FlightAware Transoceanic
Thu 11:28:00 PM 33.6844 -69.1931 54° Northeast 482 555 37,000  Level FlightAware Transoceanic
Thu 11:29:00 PM 33.7610 -69.0677 54° Northeast 482 555 37,000  Level FlightAware Transoceanic
Thu 11:29:00 PM 33.7333 -69.1000 54° Northeast 476 548 37,000  Level New York Oceanic (ODAPS)
Thu 11:30:00 PM 33.8526 -68.9169 54° Northeast 480 552 37,000  Level FlightAware Transoceanic
Thu 11:31:00 PM 33.9310 -68.7874 54° Northeast 480 552 37,000  Level FlightAware Transoceanic
Thu 11:32:00 PM 34.0093 -68.6577 54° Northeast 480 552 37,000  Level FlightAware Transoceanic
Thu 11:33:00 PM 34.0874 -68.5278 54° Northeast 480 552 37,000  Level FlightAware Transoceanic
Thu 11:34:00 PM 34.1654 -68.3976 54° Northeast 480 552 37,000  Level FlightAware Transoceanic
Thu 11:35:00 PM 34.1994 -68.3286 54° Northeast 476 548 37,000  Level FlightAware Transoceanic
Thu 11:36:00 PM 34.2766 -68.1993 54° Northeast 476 548 37,000  Level FlightAware Transoceanic
Thu 11:37:00 PM 34.3537 -68.0696 54° Northeast 476 548 37,000  Level FlightAware Transoceanic
Thu 11:38:00 PM 34.4307 -67.9398 54° Northeast 476 548 37,000  Level FlightAware Transoceanic
Thu 11:39:00 PM 34.5075 -67.8097 54° Northeast 476 548 37,000  Level FlightAware Transoceanic
Thu 11:40:00 PM 34.5841 -67.6793 55° Northeast 476 548 37,000  Level FlightAware Transoceanic
Thu 11:41:00 PM 34.6607 -67.5488 55° Northeast 476 548 37,000  Level FlightAware Transoceanic
Thu 11:42:00 PM 34.7370 -67.4179 55° Northeast 476 548 37,000 522 Level FlightAware Transoceanic
Thu 11:42:55 PM 34.8167 -67.3000 55° Northeast 476 548 38,000  Climbing New York Oceanic (ODAPS)
Thu 11:43:00 PM 34.8133 -67.2869 55° Northeast 476 548 37,000 -923 Descending FlightAware Transoceanic
Thu 11:44:00 PM 34.8894 -67.1556 55° Northeast 476 548 37,000  Level FlightAware Transoceanic
Thu 11:45:00 PM 34.9654 -67.0240 55° Northeast 476 548 37,000  Level FlightAware Transoceanic
Thu 11:46:00 PM 35.0412 -66.8922 55° Northeast 476 548 37,000  Level FlightAware Transoceanic
Thu 11:47:00 PM 35.1169 -66.7602 55° Northeast 476 548 37,000  Level FlightAware Transoceanic
Thu 11:48:00 PM 35.1924 -66.6279 55° Northeast 476 548 37,000 500 Level FlightAware Transoceanic
Thu 11:49:00 PM 35.2709 -66.5070 55° Northeast 476 548 38,000 500 Climbing FlightAware Transoceanic
Thu 11:50:00 PM 35.3460 -66.3740 55° Northeast 476 548 38,000  Level FlightAware Transoceanic
Thu 11:51:00 PM 35.4211 -66.2407 55° Northeast 476 548 38,000  Level FlightAware Transoceanic
Thu 11:52:00 PM 35.4960 -66.1072 55° Northeast 476 548 38,000  Level FlightAware Transoceanic
Thu 11:53:00 PM 35.5707 -65.9734 56° Northeast 476 548 38,000  Level FlightAware Transoceanic
Thu 11:54:00 PM 35.6453 -65.8394 56° Northeast 476 548 38,000  Level FlightAware Transoceanic
Thu 11:55:00 PM 35.7198 -65.7051 56° Northeast 476 548 38,000  Level FlightAware Transoceanic
Thu 11:56:00 PM 35.7941 -65.5706 56° Northeast 476 548 38,000  Level FlightAware Transoceanic
Thu 11:56:46 PM 35.8333 -65.4833 56° Northeast 470 541 38,000  Level New York Oceanic (ODAPS)
Thu 11:57:00 PM 35.8683 -65.4358 56° Northeast 476 548 38,000  Level FlightAware Transoceanic
Thu 11:58:00 PM 35.9423 -65.3008 56° Northeast 476 548 38,000  Level FlightAware Transoceanic
Thu 11:59:00 PM 36.0161 -65.1655 56° Northeast 476 548 38,000  Level FlightAware Transoceanic
Fri 12:00:00 AM 36.0898 -65.0300 56° Northeast 476 548 38,000  Level FlightAware Transoceanic
Fri 12:01:00 AM 36.1634 -64.8942 56° Northeast 476 548 38,000  Level FlightAware Transoceanic
Fri 12:02:00 AM 36.2368 -64.7581 56° Northeast 476 548 38,000  Level FlightAware Transoceanic
Fri 12:03:00 AM 36.2810 -64.6622 56° Northeast 470 541 38,000  Level FlightAware Transoceanic
Fri 12:04:00 AM 36.3551 -64.5244 56° Northeast 470 541 38,000  Level FlightAware Transoceanic
Fri 12:05:00 AM 36.4290 -64.3864 56° Northeast 470 541 38,000  Level FlightAware Transoceanic
Fri 12:06:00 AM 36.5027 -64.2481 56° Northeast 470 541 38,000  Level FlightAware Transoceanic
Fri 12:07:00 AM 36.5763 -64.1095 57° Northeast 470 541 38,000  Level FlightAware Transoceanic
Fri 12:08:00 AM 36.6497 -63.9707 57° Northeast 470 541 38,000  Level FlightAware Transoceanic
Fri 12:09:00 AM 36.7230 -63.8316 57° Northeast 470 541 38,000  Level FlightAware Transoceanic
Fri 12:10:00 AM 36.7961 -63.6923 57° Northeast 470 541 38,000  Level FlightAware Transoceanic
Fri 12:11:00 AM 36.8691 -63.5527 57° Northeast 470 541 38,000  Level FlightAware Transoceanic
Fri 12:11:02 AM 36.8667 -63.5667 57° Northeast 476 548 38,000  Level New York Oceanic (ODAPS)
Fri 12:12:00 AM 36.9418 -63.4128 57° Northeast 470 541 38,000  Level FlightAware Transoceanic
Fri 12:13:00 AM 37.0145 -63.2726 57° Northeast 470 541 38,000  Level FlightAware Transoceanic
Fri 12:14:00 AM 37.0869 -63.1322 57° Northeast 470 541 38,000  Level FlightAware Transoceanic
Fri 12:15:00 AM 37.1592 -62.9915 57° Northeast 470 541 38,000  Level FlightAware Transoceanic
Fri 12:16:00 AM 37.2313 -62.8506 57° Northeast 470 541 38,000  Level FlightAware Transoceanic
Fri 12:17:00 AM 37.3016 -62.7198 57° Northeast 476 548 38,000  Level FlightAware Transoceanic
Fri 12:18:00 AM 37.3734 -62.5777 58° Northeast 476 548 38,000  Level FlightAware Transoceanic
Fri 12:19:00 AM 37.4452 -62.4353 58° Northeast 476 548 38,000  Level FlightAware Transoceanic
Fri 12:20:00 AM 37.5167 -62.2926 58° Northeast 476 548 38,000  Level FlightAware Transoceanic
Fri 12:21:00 AM 37.5881 -62.1497 58° Northeast 476 548 38,000  Level FlightAware Transoceanic
Fri 12:22:00 AM 37.6593 -62.0065 58° Northeast 476 548 38,000  Level FlightAware Transoceanic
Fri 12:23:00 AM 37.7303 -61.8631 58° Northeast 476 548 38,000  Level FlightAware Transoceanic
Fri 12:24:00 AM 37.8012 -61.7193 58° Northeast 476 548 38,000  Level FlightAware Transoceanic
Fri 12:24:49 AM 37.8500 -61.6333 58° Northeast 471 542 38,000  Level New York Oceanic (ODAPS)
Fri 12:25:00 AM 37.8719 -61.5753 58° Northeast 476 548 38,000  Level FlightAware Transoceanic
Fri 12:26:00 AM 37.9424 -61.4310 58° Northeast 476 548 38,000  Level FlightAware Transoceanic
Fri 12:27:00 AM 38.0127 -61.2864 58° Northeast 476 548 38,000  Level FlightAware Transoceanic
Fri 12:28:00 AM 38.0829 -61.1416 58° Northeast 476 548 38,000  Level FlightAware Transoceanic
Fri 12:29:00 AM 38.1528 -60.9965 59° Northeast 476 548 38,000  Level FlightAware Transoceanic
Fri 12:30:00 AM 38.2419 -60.8163 59° Northeast 471 542 38,000  Level FlightAware Transoceanic
Fri 12:31:00 AM 38.3067 -60.6792 59° Northeast 471 542 38,000  Level FlightAware Transoceanic
Fri 12:32:00 AM 38.3713 -60.5420 59° Northeast 471 542 38,000  Level FlightAware Transoceanic
Fri 12:33:00 AM 38.4357 -60.4044 59° Northeast 471 542 38,000  Level FlightAware Transoceanic
Fri 12:34:00 AM 38.5000 -60.2667 57° Northeast 471 542 38,000  Level FlightAware Transoceanic
Fri 12:34:11 AM 38.5000 -60.2667 57° Northeast 467 537 38,000  Level New York Oceanic (ODAPS)
Fri 12:35:00 AM 38.5694 -60.1316 57° Northeast 471 542 38,000  Level FlightAware Transoceanic
Fri 12:36:00 AM 38.6386 -59.9962 57° Northeast 471 542 38,000  Level FlightAware Transoceanic
Fri 12:37:00 AM 38.7077 -59.8606 57° Northeast 471 542 38,000  Level FlightAware Transoceanic
Fri 12:38:00 AM 38.7767 -59.7247 57° Northeast 471 542 38,000  Level FlightAware Transoceanic
Fri 12:38:33 AM 38.8167 -59.6500 57° Northeast 460 529 38,000  Level New York Oceanic (ODAPS)
Fri 12:39:00 AM 38.8455 -59.5886 57° Northeast 471 542 38,000  Level FlightAware Transoceanic
Fri 12:40:00 AM 38.9260 -59.4285 57° Northeast 467 537 38,000  Level FlightAware Transoceanic
Fri 12:41:00 AM 38.9964 -59.2878 57° Northeast 467 537 38,000  Level FlightAware Transoceanic
Fri 12:42:00 AM 39.0667 -59.1468 57° Northeast 467 537 38,000  Level FlightAware Transoceanic
Fri 12:43:00 AM 39.1367 -59.0056 57° Northeast 467 537 38,000  Level FlightAware Transoceanic
Fri 12:44:00 AM 39.2290 -58.8227 58° Northeast 460 529 38,000  Level FlightAware Transoceanic
Fri 12:45:00 AM 39.2971 -58.6838 58° Northeast 460 529 38,000  Level FlightAware Transoceanic
Fri 12:46:00 AM 39.3651 -58.5448 58° Northeast 460 529 38,000  Level FlightAware Transoceanic
Fri 12:47:00 AM 39.4329 -58.4054 58° Northeast 460 529 38,000  Level FlightAware Transoceanic
Fri 12:48:00 AM 39.5006 -58.2657 58° Northeast 460 529 38,000  Level FlightAware Transoceanic
Fri 12:49:00 AM 39.5681 -58.1258 58° Northeast 460 529 38,000  Level FlightAware Transoceanic
Fri 12:50:00 AM 39.6354 -57.9856 58° Northeast 460 529 38,000  Level FlightAware Transoceanic
Fri 12:51:00 AM 39.7025 -57.8452 58° Northeast 460 529 38,000  Level FlightAware Transoceanic
Fri 12:52:00 AM 39.7695 -57.7045 58° Northeast 460 529 38,000  Level FlightAware Transoceanic
Fri 12:52:23 AM 39.7667 -57.7000 58° Northeast 455 524 38,000  Level New York Oceanic (ODAPS)
Fri 12:53:00 AM 39.8363 -57.5635 58° Northeast 460 529 38,000  Level FlightAware Transoceanic
Fri 12:54:00 AM 39.9030 -57.4222 58° Northeast 460 529 38,000  Level FlightAware Transoceanic
Fri 12:55:00 AM 39.9694 -57.2806 59° Northeast 460 529 38,000  Level FlightAware Transoceanic
Fri 12:56:00 AM 40.0357 -57.1388 59° Northeast 460 529 38,000  Level FlightAware Transoceanic
Fri 12:57:00 AM 40.1019 -56.9967 59° Northeast 460 529 38,000  Level FlightAware Transoceanic
Fri 12:58:00 AM 40.1578 -56.8665 59° Northeast 455 524 38,000  Level FlightAware Transoceanic
Fri 12:59:00 AM 40.2224 -56.7267 59° Northeast 455 524 38,000  Level FlightAware Transoceanic
Fri 01:00:00 AM 40.2868 -56.5865 59° Northeast 455 524 38,000  Level FlightAware Transoceanic
Fri 01:01:00 AM 40.3511 -56.4462 59° Northeast 455 524 38,000  Level FlightAware Transoceanic
Fri 01:02:00 AM 40.4152 -56.3055 59° Northeast 455 524 38,000  Level FlightAware Transoceanic
Fri 01:03:00 AM 40.4791 -56.1646 59° Northeast 455 524 38,000  Level FlightAware Transoceanic
Fri 01:04:00 AM 40.5428 -56.0234 59° Northeast 455 524 38,000  Level FlightAware Transoceanic
Fri 01:05:00 AM 40.6064 -55.8820 59° Northeast 455 524 38,000  Level FlightAware Transoceanic
Fri 01:06:00 AM 40.6698 -55.7402 60° Northeast 455 524 38,000  Level FlightAware Transoceanic
Fri 01:06:15 AM 40.6667 -55.7500 60° Northeast 457 526 38,000  Level New York Oceanic (ODAPS)
Fri 01:07:00 AM 40.7331 -55.5983 60° Northeast 455 524 38,000  Level FlightAware Transoceanic
Fri 01:08:00 AM 40.7961 -55.4560 60° Northeast 455 524 38,000  Level FlightAware Transoceanic
Fri 01:09:00 AM 40.8590 -55.3135 60° Northeast 455 524 38,000  Level FlightAware Transoceanic
Fri 01:10:00 AM 40.9217 -55.1707 60° Northeast 455 524 38,000  Level FlightAware Transoceanic
Fri 01:11:00 AM 40.9842 -55.0276 60° Northeast 455 524 38,000  Level FlightAware Transoceanic
Fri 01:12:00 AM 41.0538 -54.8699 60° Northeast 457 526 38,000  Level FlightAware Transoceanic
Fri 01:13:00 AM 41.1177 -54.7222 60° Northeast 457 526 38,000  Level FlightAware Transoceanic
Fri 01:14:00 AM 41.1814 -54.5742 60° Northeast 457 526 38,000  Level FlightAware Transoceanic
Fri 01:15:00 AM 41.2449 -54.4260 60° Northeast 457 526 38,000  Level FlightAware Transoceanic
Fri 01:16:00 AM 41.3082 -54.2774 60° Northeast 457 526 38,000  Level FlightAware Transoceanic
Fri 01:17:00 AM 41.3713 -54.1286 61° Northeast 457 526 38,000  Level FlightAware Transoceanic
Fri 01:18:00 AM 41.4342 -53.9795 61° Northeast 457 526 38,000  Level FlightAware Transoceanic
Fri 01:19:00 AM 41.4969 -53.8300 61° Northeast 457 526 38,000  Level FlightAware Transoceanic
Fri 01:20:00 AM 41.5595 -53.6803 61° Northeast 457 526 38,000  Level FlightAware Transoceanic
Fri 01:20:10 AM 41.5500 -53.7167 61° Northeast 452 520 38,000  Level New York Oceanic (ODAPS)
Fri 01:21:00 AM 41.6218 -53.5303 61° Northeast 457 526 38,000  Level FlightAware Transoceanic
Fri 01:22:00 AM 41.6839 -53.3801 61° Northeast 457 526 38,000  Level FlightAware Transoceanic
Fri 01:23:00 AM 41.7459 -53.2295 61° Northeast 457 526 38,000  Level FlightAware Transoceanic
Fri 01:24:00 AM 41.8076 -53.0786 61° Northeast 457 526 38,000  Level FlightAware Transoceanic
Fri 01:25:00 AM 41.8692 -52.9274 61° Northeast 457 526 38,000  Level FlightAware Transoceanic
Fri 01:26:00 AM 41.9089 -52.8402 62° Northeast 452 520 38,000  Level FlightAware Transoceanic
Fri 01:27:00 AM 41.9680 -52.6932 62° Northeast 452 520 38,000  Level FlightAware Transoceanic
Fri 01:28:00 AM 42.0270 -52.5459 62° Northeast 452 520 38,000  Level FlightAware Transoceanic
Fri 01:29:00 AM 42.0858 -52.3984 62° Northeast 452 520 38,000  Level FlightAware Transoceanic
Fri 01:30:00 AM 42.1443 -52.2505 62° Northeast 452 520 38,000  Level FlightAware Transoceanic
Fri 01:31:00 AM 42.2028 -52.1024 62° Northeast 452 520 38,000  Level FlightAware Transoceanic
Fri 01:32:00 AM 42.2610 -51.9540 62° Northeast 452 520 38,000  Level FlightAware Transoceanic
Fri 01:33:00 AM 42.3190 -51.8054 62° Northeast 452 520 38,000  Level FlightAware Transoceanic
Fri 01:33:59 AM 42.3667 -51.6833 62° Northeast 443 510 38,000  Level New York Oceanic (ODAPS)
Fri 01:34:00 AM 42.3768 -51.6564 62° Northeast 452 520 38,000  Level FlightAware Transoceanic
Fri 01:35:00 AM 42.4344 -51.5072 62° Northeast 452 520 38,000  Level FlightAware Transoceanic
Fri 01:36:00 AM 42.4919 -51.3577 63° Northeast 452 520 38,000  Level FlightAware Transoceanic
Fri 01:37:00 AM 42.5491 -51.2080 63° Northeast 452 520 38,000  Level FlightAware Transoceanic
Fri 01:38:00 AM 42.6062 -51.0579 63° Northeast 452 520 38,000  Level FlightAware Transoceanic
Fri 01:39:00 AM 42.6630 -50.9076 63° Northeast 452 520 38,000  Level FlightAware Transoceanic
Fri 01:40:00 AM 42.7152 -50.7694 63° Northeast 443 510 38,000  Level FlightAware Transoceanic
Fri 01:41:00 AM 42.7725 -50.6161 63° Northeast 443 510 38,000  Level FlightAware Transoceanic
Fri 01:42:00 AM 42.8297 -50.4625 63° Northeast 443 510 38,000  Level FlightAware Transoceanic
Fri 01:43:00 AM 42.8867 -50.3086 63° Northeast 443 510 38,000  Level FlightAware Transoceanic
Fri 01:44:00 AM 42.9435 -50.1544 63° Northeast 443 510 38,000  Level FlightAware Transoceanic
Fri 01:45:00 AM 43.0000 -50.0000 71° East 443 510 38,000  Level FlightAware Transoceanic
Fri 01:46:00 AM 43.0403 -49.8391 71° East 443 510 38,000  Level FlightAware Transoceanic
Fri 01:46:07 AM 43.0000 -50.0000 71° East 450 518 38,000  Level New York Oceanic (ODAPS)
Fri 01:47:00 AM 43.0804 -49.6780 71° East 443 510 38,000  Level FlightAware Transoceanic
Fri 01:48:00 AM 43.1203 -49.5167 71° East 443 510 38,000  Level FlightAware Transoceanic
Fri 01:48:03 AM 43.1000 -49.6167 71° East 449 517 38,000  Level New York Oceanic (ODAPS)
Fri 01:49:00 AM 43.1599 -49.3552 71° East 443 510 38,000  Level FlightAware Transoceanic
Fri 01:50:00 AM 43.1994 -49.1935 72° East 443 510 38,000  Level FlightAware Transoceanic
Fri 01:51:00 AM 43.2385 -49.0315 72° East 443 510 38,000  Level FlightAware Transoceanic
Fri 01:52:00 AM 43.2775 -48.8694 72° East 450 518 38,000  Level FlightAware Transoceanic
Fri 01:53:00 AM 43.3162 -48.7071 72° East 450 518 38,000  Level FlightAware Transoceanic
Fri 01:54:00 AM 43.3373 -48.6346 72° East 449 517 38,000  Level FlightAware Transoceanic
Fri 01:55:00 AM 43.3761 -48.4701 72° East 449 517 38,000  Level FlightAware Transoceanic
Fri 01:56:00 AM 43.4146 -48.3055 72° East 449 517 38,000  Level FlightAware Transoceanic
Fri 01:57:00 AM 43.4529 -48.1407 72° East 449 517 38,000  Level FlightAware Transoceanic
Fri 01:58:00 AM 43.4909 -47.9756 72° East 449 517 38,000  Level FlightAware Transoceanic
Fri 01:59:00 AM 43.5287 -47.8104 73° East 449 517 38,000  Level FlightAware Transoceanic
Fri 02:00:00 AM 43.5662 -47.6449 73° East 449 517 38,000  Level FlightAware Transoceanic
Fri 02:01:00 AM 43.6035 -47.4792 73° East 449 517 38,000  Level FlightAware Transoceanic
Fri 02:01:44 AM 43.6167 -47.3833 73° East 450 518 38,000  Level New York Oceanic (ODAPS)
Fri 02:02:00 AM 43.6406 -47.3134 73° East 449 517 38,000  Level FlightAware Transoceanic
Fri 02:03:00 AM 43.6775 -47.1473 73° East 449 517 38,000  Level FlightAware Transoceanic
Fri 02:04:00 AM 43.7141 -46.9810 73° East 449 517 38,000  Level FlightAware Transoceanic
Fri 02:05:00 AM 43.7504 -46.8145 73° East 449 517 38,000  Level FlightAware Transoceanic
Fri 02:06:00 AM 43.7865 -46.6478 73° East 449 517 38,000  Level FlightAware Transoceanic
Fri 02:07:00 AM 43.8017 -46.5433 73° East 450 518 38,000  Level FlightAware Transoceanic
Fri 02:08:00 AM 43.8379 -46.3746 73° East 450 518 38,000  Level FlightAware Transoceanic
Fri 02:09:00 AM 43.8739 -46.2058 74° East 450 518 38,000  Level FlightAware Transoceanic
Fri 02:10:00 AM 43.9097 -46.0367 74° East 450 518 38,000  Level FlightAware Transoceanic
Fri 02:11:00 AM 43.9452 -45.8675 74° East 450 518 38,000  Level FlightAware Transoceanic
Fri 02:12:00 AM 43.9805 -45.6981 74° East 450 518 38,000  Level FlightAware Transoceanic
Fri 02:13:00 AM 44.0155 -45.5284 74° East 450 518 38,000  Level FlightAware Transoceanic
Fri 02:14:00 AM 44.0502 -45.3586 74° East 450 518 38,000  Level FlightAware Transoceanic
Fri 02:15:00 AM 44.0848 -45.1885 74° East 450 518 38,000  Level FlightAware Transoceanic
Fri 02:15:38 AM 44.1000 -45.1000 74° East 455 524 38,000  Level New York Oceanic (ODAPS)
Fri 02:16:00 AM 44.1190 -45.0183 74° East 450 518 38,000  Level FlightAware Transoceanic
Fri 02:17:00 AM 44.1530 -44.8478 75° East 450 518 38,000  Level FlightAware Transoceanic
Fri 02:18:00 AM 44.1868 -44.6772 75° East 450 518 38,000  Level FlightAware Transoceanic
Fri 02:19:00 AM 44.2202 -44.5064 75° East 450 518 38,000  Level FlightAware Transoceanic
Fri 02:20:00 AM 44.2535 -44.3353 75° East 450 518 38,000  Level FlightAware Transoceanic
Fri 02:21:00 AM 44.2980 -44.0929 75° East 455 524 38,000  Level FlightAware Transoceanic
Fri 02:22:00 AM 44.3302 -43.9244 75° East 455 524 38,000  Level FlightAware Transoceanic
Fri 02:23:00 AM 44.3621 -43.7557 75° East 455 524 38,000  Level FlightAware Transoceanic
Fri 02:24:00 AM 44.3937 -43.5868 75° East 455 524 38,000  Level FlightAware Transoceanic
Fri 02:25:00 AM 44.4251 -43.4177 75° East 455 524 38,000  Level FlightAware Transoceanic
Fri 02:26:00 AM 44.4563 -43.2485 76° East 455 524 38,000  Level FlightAware Transoceanic
Fri 02:27:00 AM 44.4872 -43.0791 76° East 455 524 38,000  Level FlightAware Transoceanic
Fri 02:28:00 AM 44.5178 -42.9095 76° East 455 524 38,000  Level FlightAware Transoceanic
Fri 02:29:00 AM 44.5482 -42.7397 76° East 455 524 38,000  Level FlightAware Transoceanic
Fri 02:30:00 AM 44.5784 -42.5697 76° East 455 524 38,000  Level FlightAware Transoceanic
Fri 02:31:00 AM 44.6083 -42.3996 76° East 455 524 38,000  Level FlightAware Transoceanic
Fri 02:32:00 AM 44.6379 -42.2293 76° East 455 524 38,000  Level FlightAware Transoceanic
Fri 02:33:00 AM 44.6673 -42.0588 76° East 455 524 38,000  Level FlightAware Transoceanic
Fri 02:34:00 AM 44.6964 -41.8882 77° East 455 524 38,000  Level FlightAware Transoceanic
Fri 02:35:00 AM 44.7253 -41.7174 77° East 455 524 38,000  Level FlightAware Transoceanic
Fri 02:36:00 AM 44.7539 -41.5464 77° East 455 524 38,000  Level FlightAware Transoceanic
Fri 02:37:00 AM 44.7823 -41.3752 77° East 455 524 38,000  Level FlightAware Transoceanic
Fri 02:38:00 AM 44.8104 -41.2039 77° East 455 524 38,000  Level FlightAware Transoceanic
Fri 02:39:00 AM 44.8383 -41.0324 77° East 455 524 38,000  Level FlightAware Transoceanic
Fri 02:40:00 AM 44.8659 -40.8607 77° East 455 524 38,000  Level FlightAware Transoceanic
Fri 02:41:00 AM 44.8932 -40.6889 77° East 455 524 38,000  Level FlightAware Transoceanic
Fri 02:42:00 AM 44.9203 -40.5169 78° East 455 524 38,000  Level FlightAware Transoceanic
Fri 02:43:00 AM 44.9471 -40.3448 78° East 455 524 38,000  Level FlightAware Transoceanic
Fri 02:44:00 AM 44.9737 -40.1725 78° East 455 524 38,000  Level FlightAware Transoceanic
Fri 02:45:00 AM 45.0000 -40.0000 70° East 455 524 38,000  Level FlightAware Transoceanic
Fri 02:46:00 AM 45.0432 -39.8281 70° East 455 524 38,000  Level FlightAware Transoceanic
Fri 02:47:00 AM 45.0861 -39.6559 71° East 455 524 38,000  Level FlightAware Transoceanic
Fri 02:48:00 AM 45.1288 -39.4834 71° East 455 524 38,000  Level FlightAware Transoceanic
Fri 02:49:00 AM 45.1712 -39.3107 71° East 455 524 38,000  Level FlightAware Transoceanic
Fri 02:50:00 AM 45.2133 -39.1377 71° East 455 524 38,000  Level FlightAware Transoceanic
Fri 02:51:00 AM 45.2552 -38.9645 71° East 455 524 38,000  Level FlightAware Transoceanic
Fri 02:52:00 AM 45.2969 -38.7910 71° East 455 524 38,000  Level FlightAware Transoceanic
Fri 02:53:00 AM 45.3382 -38.6173 71° East 455 524 38,000  Level FlightAware Transoceanic
Fri 02:54:00 AM 45.3793 -38.4433 71° East 455 524 38,000  Level FlightAware Transoceanic
Fri 02:55:00 AM 45.4202 -38.2690 72° East 455 524 38,000  Level FlightAware Transoceanic
Fri 02:56:00 AM 45.4607 -38.0945 72° East 455 524 38,000  Level FlightAware Transoceanic
Fri 02:57:00 AM 45.5010 -37.9198 72° East 455 524 38,000  Level FlightAware Transoceanic
Fri 02:58:00 AM 45.5411 -37.7448 72° East 455 524 38,000  Level FlightAware Transoceanic
Fri 02:59:00 AM 45.5808 -37.5695 72° East 455 524 38,000  Level FlightAware Transoceanic
Fri 03:00:00 AM 45.6203 -37.3941 72° East 455 524 38,000  Level FlightAware Transoceanic
Fri 03:01:00 AM 45.6596 -37.2183 72° East 455 524 38,000  Level FlightAware Transoceanic
Fri 03:02:00 AM 45.6985 -37.0423 72° East 455 524 38,000  Level FlightAware Transoceanic
Fri 03:03:00 AM 45.7372 -36.8661 73° East 455 524 38,000  Level FlightAware Transoceanic
Fri 03:04:00 AM 45.7757 -36.6896 73° East 455 524 38,000  Level FlightAware Transoceanic
Fri 03:05:00 AM 45.8138 -36.5129 73° East 455 524 38,000  Level FlightAware Transoceanic
Fri 03:06:00 AM 45.8517 -36.3360 73° East 455 524 38,000  Level FlightAware Transoceanic
Fri 03:07:00 AM 45.8893 -36.1588 73° East 455 524 38,000  Level FlightAware Transoceanic
Fri 03:08:00 AM 45.9266 -35.9813 73° East 455 524 38,000  Level FlightAware Transoceanic
Fri 03:09:00 AM 45.9637 -35.8037 73° East 455 524 38,000  Level FlightAware Transoceanic
Fri 03:10:00 AM 46.0004 -35.6258 73° East 455 524 38,000  Level FlightAware Transoceanic
Fri 03:11:00 AM 46.0369 -35.4476 74° East 455 524 38,000  Level FlightAware Transoceanic
Fri 03:12:00 AM 46.0732 -35.2692 74° East 455 524 38,000  Level FlightAware Transoceanic
Fri 03:13:00 AM 46.1091 -35.0906 74° East 455 524 38,000  Level FlightAware Transoceanic
Fri 03:14:00 AM 46.1448 -34.9118 74° East 455 524 38,000  Level FlightAware Transoceanic
Fri 03:15:00 AM 46.1802 -34.7327 74° East 455 524 38,000  Level FlightAware Transoceanic
Fri 03:16:00 AM 46.2153 -34.5534 74° East 455 524 38,000  Level FlightAware Transoceanic
Fri 03:17:00 AM 46.2501 -34.3738 74° East 455 524 38,000  Level FlightAware Transoceanic
Fri 03:18:00 AM 46.2846 -34.1941 75° East 455 524 38,000  Level FlightAware Transoceanic
Fri 03:19:00 AM 46.3189 -34.0141 75° East 455 524 38,000  Level FlightAware Transoceanic
Fri 03:20:00 AM 46.3529 -33.8339 75° East 455 524 38,000  Level FlightAware Transoceanic
Fri 03:21:00 AM 46.3866 -33.6534 75° East 455 524 38,000  Level FlightAware Transoceanic
Fri 03:22:00 AM 46.4200 -33.4728 75° East 455 524 38,000  Level FlightAware Transoceanic
Fri 03:23:00 AM 46.4531 -33.2919 75° East 455 524 38,000  Level FlightAware Transoceanic
Fri 03:24:00 AM 46.4860 -33.1108 75° East 455 524 38,000  Level FlightAware Transoceanic
Fri 03:25:00 AM 46.5185 -32.9295 75° East 455 524 38,000  Level FlightAware Transoceanic
Fri 03:26:00 AM 46.5508 -32.7480 76° East 455 524 38,000  Level FlightAware Transoceanic
Fri 03:27:00 AM 46.5828 -32.5662 76° East 455 524 38,000  Level FlightAware Transoceanic
Fri 03:28:00 AM 46.6145 -32.3843 76° East 455 524 38,000  Level FlightAware Transoceanic
Fri 03:29:00 AM 46.6459 -32.2021 76° East 455 524 38,000  Level FlightAware Transoceanic
Fri 03:30:00 AM 46.6770 -32.0197 76° East 455 524 38,000  Level FlightAware Transoceanic
Fri 03:31:00 AM 46.7078 -31.8371 76° East 455 524 38,000  Level FlightAware Transoceanic
Fri 03:32:00 AM 46.7384 -31.6543 76° East 455 524 38,000  Level FlightAware Transoceanic
Fri 03:33:00 AM 46.7686 -31.4713 77° East 455 524 38,000  Level FlightAware Transoceanic
Fri 03:34:00 AM 46.7986 -31.2881 77° East 455 524 38,000  Level FlightAware Transoceanic
Fri 03:35:00 AM 46.8282 -31.1047 77° East 455 524 38,000  Level FlightAware Transoceanic
Fri 03:36:00 AM 46.8576 -30.9210 77° East 455 524 38,000  Level FlightAware Transoceanic
Fri 03:37:00 AM 46.8867 -30.7372 77° East 455 524 38,000  Level FlightAware Transoceanic
Fri 03:38:00 AM 46.9154 -30.5532 77° East 455 524 38,000  Level FlightAware Transoceanic
Fri 03:39:00 AM 46.9439 -30.3690 77° East 455 524 38,000  Level FlightAware Transoceanic
Fri 03:40:00 AM 46.9721 -30.1846 77° East 455 524 38,000  Level FlightAware Transoceanic
Fri 03:41:00 AM 47.0240 -30.0145 66° East  Level Estimated
Fri 03:42:00 AM 47.0756 -29.8442 66° East  Level Estimated
Fri 03:43:00 AM 47.1269 -29.6734 66° East  Level Estimated
Fri 03:44:00 AM 47.1780 -29.5024 66° East  Level Estimated
Fri 03:45:00 AM 47.2285 -29.3320 66° East  Level Estimated
Fri 03:46:00 AM 47.2788 -29.1613 66° East  Level Estimated
Fri 03:47:00 AM 47.3289 -28.9903 67° East  Level Estimated
Fri 03:48:00 AM 47.3786 -28.8190 67° East  Level Estimated
Fri 03:49:00 AM 47.4282 -28.6473 67° East  Level Estimated
Fri 03:50:00 AM 47.4774 -28.4753 67° East  Level Estimated
Fri 03:51:00 AM 47.5264 -28.3030 67° East  Level Estimated
Fri 03:52:00 AM 47.5752 -28.1304 67° East  Level Estimated
Fri 03:53:00 AM 47.6237 -27.9574 67° East  Level Estimated
Fri 03:54:00 AM 47.6719 -27.7842 67° East  Level Estimated
Fri 03:55:00 AM 47.7199 -27.6106 68° East  Level Estimated
Fri 03:56:00 AM 47.7676 -27.4367 68° East  Level Estimated
Fri 03:57:00 AM 47.8150 -27.2624 68° East  Level Estimated
Fri 03:58:00 AM 47.8622 -27.0879 68° East  Level Estimated
Fri 03:59:00 AM 47.9091 -26.9130 68° East  Level Estimated
Fri 04:00:00 AM 47.9558 -26.7379 68° East  Level Estimated
Fri 04:01:00 AM 48.0021 -26.5624 68° East  Level Estimated
Fri 04:02:00 AM 48.0482 -26.3866 69° East  Level Estimated
Fri 04:03:00 AM 48.0941 -26.2104 69° East  Level Estimated
Fri 04:04:00 AM 48.1397 -26.0340 69° East  Level Estimated
Fri 04:05:00 AM 48.1850 -25.8572 69° East  Level Estimated
Fri 04:06:00 AM 48.2300 -25.6802 69° East  Level Estimated
Fri 04:07:00 AM 48.2747 -25.5028 69° East  Level Estimated
Fri 04:08:00 AM 48.3192 -25.3251 69° East  Level Estimated
Fri 04:09:00 AM 48.3634 -25.1471 69° East  Level Estimated
Fri 04:10:00 AM 48.4074 -24.9688 70° East  Level Estimated
Fri 04:11:00 AM 48.4510 -24.7902 70° East  Level Estimated
Fri 04:12:00 AM 48.4944 -24.6113 70° East  Level Estimated
Fri 04:13:00 AM 48.5375 -24.4321 70° East  Level Estimated
Fri 04:14:00 AM 48.5804 -24.2526 70° East  Level Estimated
Fri 04:15:00 AM 48.6229 -24.0728 70° East  Level Estimated
Fri 04:16:00 AM 48.6652 -23.8926 70° East  Level Estimated
Fri 04:17:00 AM 48.7072 -23.7122 71° East  Level Estimated
Fri 04:18:00 AM 48.7489 -23.5315 71° East  Level Estimated
Fri 04:19:00 AM 48.7903 -23.3504 71° East  Level Estimated
Fri 04:20:00 AM 48.8314 -23.1691 71° East  Level Estimated
Fri 04:21:00 AM 48.8723 -22.9875 71° East  Level Estimated
Fri 04:22:00 AM 48.9129 -22.8056 71° East  Level Estimated
Fri 04:23:00 AM 48.9531 -22.6234 71° East  Level Estimated
Fri 04:24:00 AM 48.9931 -22.4408 71° East  Level Estimated
Fri 04:25:00 AM 49.0328 -22.2580 72° East  Level Estimated
Fri 04:26:00 AM 49.0723 -22.0749 72° East  Level Estimated
Fri 04:27:00 AM 49.1114 -21.8916 72° East  Level Estimated
Fri 04:28:00 AM 49.1502 -21.7079 72° East  Level Estimated
Fri 04:29:00 AM 49.1888 -21.5239 72° East  Level Estimated
Fri 04:30:00 AM 49.2270 -21.3397 72° East  Level Estimated
Fri 04:31:00 AM 49.2650 -21.1552 72° East  Level Estimated
Fri 04:32:00 AM 49.3026 -20.9704 73° East  Level Estimated
Fri 04:33:00 AM 49.3400 -20.7853 73° East  Level Estimated
Fri 04:34:00 AM 49.3771 -20.5999 73° East  Level Estimated
Fri 04:35:00 AM 49.4138 -20.4142 73° East  Level Estimated
Fri 04:36:00 AM 49.4503 -20.2283 73° East  Level Estimated
Fri 04:37:00 AM 49.4865 -20.0421 73° East  Level Estimated
Fri 04:38:00 AM 49.5224 -19.8556 73° East  Level Estimated
Fri 04:39:00 AM 49.5580 -19.6689 74° East  Level Estimated
Fri 04:40:00 AM 49.5932 -19.4819 74° East  Level Estimated
Fri 04:41:00 AM 49.6282 -19.2946 74° East  Level Estimated
Fri 04:42:00 AM 49.6629 -19.1070 74° East  Level Estimated
Fri 04:43:00 AM 49.6973 -18.9192 74° East  Level Estimated
Fri 04:44:00 AM 49.7313 -18.7311 74° East  Level Estimated
Fri 04:45:00 AM 49.7651 -18.5428 74° East  Level Estimated
Fri 04:46:00 AM 49.7985 -18.3542 75° East  Level Estimated
Fri 04:47:00 AM 49.8317 -18.1653 75° East  Level Estimated
Fri 04:48:00 AM 49.8645 -17.9762 75° East  Level Estimated
Fri 04:49:00 AM 49.8971 -17.7868 75° East  Level Estimated
Fri 04:50:00 AM 49.9293 -17.5971 75° East  Level Estimated
Fri 04:51:00 AM 49.9612 -17.4072 75° East  Level Estimated
Fri 04:52:00 AM 49.9928 -17.2171 75° East  Level Estimated
Fri 04:53:00 AM 50.0241 -17.0267 76° East  Level Estimated
Fri 04:54:00 AM 50.0551 -16.8361 76° East  Level Estimated
Fri 04:55:00 AM 50.0858 -16.6452 76° East  Level Estimated
Fri 04:56:00 AM 50.1161 -16.4540 76° East  Level Estimated
Fri 04:57:00 AM 50.1461 -16.2627 76° East  Level Estimated
Fri 04:58:00 AM 50.1759 -16.0711 76° East  Level Estimated
Fri 04:59:00 AM 50.2053 -15.8792 76° East  Level Estimated
Fri 05:00:00 AM 50.2344 -15.6871 77° East  Level Estimated
Fri 05:01:00 AM 50.2632 -15.4948 77° East  Level Estimated
Fri 05:02:00 AM 50.2916 -15.3022 77° East  Level Estimated
Fri 05:03:00 AM 50.3198 -15.1095 77° East  Level Estimated
Fri 05:04:00 AM 50.3476 -14.9165 77° East  Level Estimated
Fri 05:05:00 AM 50.3751 -14.7232 77° East  Level Estimated
Fri 05:06:00 AM 50.4023 -14.5298 77° East  Level Estimated
Fri 05:07:00 AM 50.4291 -14.3361 78° East  Level Estimated
Fri 05:08:00 AM 50.4557 -14.1422 78° East  Level Estimated
Fri 05:09:00 AM 50.4819 -13.9481 78° East  Level Estimated
Fri 05:10:00 AM 50.5078 -13.7538 78° East  Level Estimated
Fri 05:11:00 AM 50.5334 -13.5593 78° East  Level Estimated
Fri 05:12:00 AM 50.5586 -13.3645 78° East  Level Estimated
Fri 05:13:00 AM 50.5835 -13.1696 79° East  Level Estimated
Fri 05:14:00 AM 50.6081 -12.9744 79° East  Level Estimated
Fri 05:15:00 AM 50.6324 -12.7791 79° East  Level Estimated
Fri 05:16:00 AM 50.6563 -12.5835 79° East  Level Estimated
Fri 05:17:00 AM 50.6799 -12.3877 79° East  Level Estimated
Fri 05:18:00 AM 50.7032 -12.1918 79° East  Level Estimated
Fri 05:19:00 AM 50.7262 -11.9957 79° East  Level Estimated
Fri 05:20:00 AM 50.7488 -11.7993 80° East  Level Estimated
Fri 05:21:00 AM 50.7711 -11.6028 80° East  Level Estimated
Fri 05:22:00 AM 50.7931 -11.4061 80° East  Level Estimated
Fri 05:23:00 AM 50.8147 -11.2092 80° East  Level Estimated
Fri 05:24:00 AM 50.8360 -11.0121 80° East  Level Estimated
Fri 05:24:37 AM 49.7190 -9.6730 80° East 490 564 38,000  Level FlightAware ADS-B
Fri 05:25:00 AM 50.8570 -10.8149 80° East  Level Estimated
Fri 05:25:17 AM 49.7360 -9.5350 79° East 489 563 37,700  Level FlightAware ADS-B
Fri 05:25:57 AM 49.7520 -9.4010 79° East 488 562 37,000 -494 Descending FlightAware ADS-B
Fri 05:26:42 AM 49.7710 -9.2410 80° East 487 560 37,000  Level FlightAware ADS-B
Fri 05:27:22 AM 49.7860 -9.1100 80° East 486 559 37,000 -1,154 Level FlightAware ADS-B
Fri 05:28:00 AM 49.8015 -8.9709 80° East 462 532 35,500  Descending FlightAware UK
Fri 05:28:07 AM 49.8040 -8.9540 80° East 487 560 37,000  Climbing FlightAware ADS-B
Fri 05:28:24 AM 49.8111 -8.8888 80° East 462 532 35,500 -2,571 Descending FlightAware UK
Fri 05:28:42 AM 49.8182 -8.8272 80° East 462 532 35,500 3,913 Level FlightAware UK
Fri 05:28:47 AM 49.8200 -8.8160 80° East 487 560 37,000  Climbing FlightAware ADS-B
Fri 05:29:06 AM 49.8277 -8.7451 80° East 462 532 35,500 -2,432 Descending FlightAware UK
Fri 05:29:24 AM 49.8356 -8.6837 79° East 462 532 35,500 2,903 Level FlightAware UK
Fri 05:29:37 AM 49.8430 -8.6480 77° East 485 558 37,000  Climbing FlightAware ADS-B
Fri 05:29:42 AM 49.8444 -8.6227 77° East 460 529 35,500 -5,294 Descending FlightAware UK
Fri 05:29:54 AM 49.8508 -8.5823 77° East 462 532 35,500 -200 Level FlightAware UK
Fri 05:30:12 AM 49.8613 -8.5220 75° East 462 532 35,400 3,214 Descending FlightAware UK
Fri 05:30:22 AM 49.8670 -8.4990 75° East 485 558 37,000 200 Climbing FlightAware ADS-B
Fri 05:30:42 AM 49.8795 -8.4220 75° East 462 532 35,500 -2,368 Descending FlightAware UK
Fri 05:31:00 AM 49.8905 -8.3620 74° East 462 532 35,500 3,600 Level FlightAware UK
Fri 05:31:07 AM 49.8940 -8.3480 74° East 484 557 37,000  Climbing FlightAware ADS-B
Fri 05:31:24 AM 49.9049 -8.2820 74° East 462 532 35,500 -2,743 Descending FlightAware UK
Fri 05:31:42 AM 49.9158 -8.2220 74° East 460 529 35,400 3,913 Descending FlightAware UK
Fri 05:31:47 AM 49.9180 -8.2130 74° East 484 557 37,000 250 Climbing FlightAware ADS-B
Fri 05:32:06 AM 49.9301 -8.1420 74° East 460 529 35,500 -2,432 Descending FlightAware UK
Fri 05:32:24 AM 49.9407 -8.0812 75° East 460 529 35,500 3,462 Level FlightAware UK
Fri 05:32:32 AM 49.9440 -8.0610 75° East 483 556 37,000  Climbing FlightAware ADS-B
Fri 05:32:48 AM 49.9546 -8.0010 75° East 460 529 35,500 -2,647 Descending FlightAware UK
Fri 05:33:06 AM 49.9649 -7.9407 75° East 460 529 35,500 3,750 Level FlightAware UK
Fri 05:33:12 AM 49.9680 -7.9270 75° East 484 557 37,000  Climbing FlightAware ADS-B
Fri 05:33:30 AM 49.9786 -7.8604 75° East 460 529 35,500 -2,500 Descending FlightAware UK
Fri 05:33:48 AM 49.9889 -7.8001 75° East 462 532 35,500 4,091 Level FlightAware UK
Fri 05:33:52 AM 49.9900 -7.7930 75° East 483 556 37,000  Climbing FlightAware ADS-B
Fri 05:34:12 AM 50.0027 -7.7194 75° East 468 539 35,500 -2,368 Descending FlightAware UK
Fri 05:34:30 AM 50.0129 -7.6590 75° East 468 539 35,500 3,600 Level FlightAware UK
Fri 05:34:37 AM 50.0150 -7.6440 75° East 483 556 37,000  Climbing FlightAware ADS-B
Fri 05:34:54 AM 50.0263 -7.5783 75° East 464 534 35,500 -2,571 Descending FlightAware UK
Fri 05:35:12 AM 50.0363 -7.5179 76° East 464 534 35,500 3,913 Level FlightAware UK
Fri 05:35:17 AM 50.0380 -7.5100 76° East 482 555 37,000  Climbing FlightAware ADS-B
Fri 05:35:36 AM 50.0497 -7.4374 76° East 464 534 35,500 -2,432 Descending FlightAware UK
Fri 05:35:54 AM 50.0597 -7.3771 75° East 464 534 35,500 3,462 Level FlightAware UK
Fri 05:36:02 AM 50.0630 -7.3620 75° East 482 555 37,000  Climbing FlightAware ADS-B
Fri 05:36:18 AM 50.0730 -7.2967 75° East 464 534 35,500 -2,647 Descending FlightAware UK
Fri 05:36:36 AM 50.0829 -7.2366 76° East 466 536 35,500 3,750 Level FlightAware UK
Fri 05:36:42 AM 50.0850 -7.2260 76° East 480 552 37,000  Climbing FlightAware ADS-B
Fri 05:37:00 AM 50.0962 -7.1563 76° East 466 536 35,500 -2,500 Descending FlightAware UK
Fri 05:37:18 AM 50.1060 -7.0961 76° East 464 534 35,500 3,333 Level FlightAware UK
Fri 05:37:27 AM 50.1100 -7.0750 76° East 480 552 37,000  Climbing FlightAware ADS-B
Fri 05:37:42 AM 50.1188 -7.0159 76° East 464 534 35,500 -2,727 Descending FlightAware UK
Fri 05:38:00 AM 50.1286 -6.9551 76° East 464 534 35,500 3,600 Level FlightAware UK
Fri 05:38:07 AM 50.1310 -6.9410 76° East 479 551 37,000  Climbing FlightAware ADS-B
Fri 05:38:24 AM 50.1415 -6.8748 76° East 466 536 35,500 -2,571 Descending FlightAware UK
Fri 05:38:42 AM 50.1511 -6.8147 76° East 466 536 35,500 3,913 Level FlightAware UK
Fri 05:38:47 AM 50.1530 -6.8070 76° East 478 550 37,000  Climbing FlightAware ADS-B
Fri 05:39:06 AM 50.1638 -6.7346 76° East 466 536 35,500 -2,432 Descending FlightAware UK
Fri 05:39:24 AM 50.1735 -6.6747 76° East 464 534 35,500 3,462 Level FlightAware UK
Fri 05:39:32 AM 50.1770 -6.6530 76° East 478 550 37,000  Climbing FlightAware ADS-B
Fri 05:39:48 AM 50.1863 -6.5948 76° East 466 536 35,500 -2,647 Descending FlightAware UK
Fri 05:40:06 AM 50.1958 -6.5349 76° East 466 536 35,500 3,750 Level FlightAware UK
Fri 05:40:12 AM 50.1980 -6.5190 76° East 477 549 37,000  Climbing FlightAware ADS-B
Fri 05:40:30 AM 50.2082 -6.4549 76° East 464 534 35,500 -2,500 Descending FlightAware UK
Fri 05:40:48 AM 50.2175 -6.3949 76° East 466 536 35,500 3,333 Level FlightAware UK
Fri 05:40:57 AM 50.2210 -6.3720 76° East 477 549 37,000  Climbing FlightAware ADS-B
Fri 05:41:12 AM 50.2299 -6.3148 76° East 466 536 35,500 -2,727 Descending FlightAware UK
Fri 05:41:30 AM 50.2393 -6.2548 76° East 466 536 35,500 3,600 Level FlightAware UK
Fri 05:41:37 AM 50.2420 -6.2380 76° East 477 549 37,000  Climbing FlightAware ADS-B
Fri 05:41:54 AM 50.2518 -6.1746 76° East 464 534 35,500 -2,571 Descending FlightAware UK
Fri 05:42:12 AM 50.2611 -6.1145 76° East 466 536 35,500 3,913 Level FlightAware UK
Fri 05:42:17 AM 50.2620 -6.1050 76° East 476 548 37,000  Climbing FlightAware ADS-B
Fri 05:42:36 AM 50.2733 -6.0344 76° East 466 536 35,500 -2,432 Descending FlightAware UK
Fri 05:42:54 AM 50.2824 -5.9743 77° East 466 536 35,500 3,462 Level FlightAware UK
Fri 05:43:02 AM 50.2840 -5.9640 77° East 475 547 37,000  Climbing FlightAware ADS-B
Fri 05:43:18 AM 50.2944 -5.8943 77° East 466 536 35,500 -2,647 Descending FlightAware UK
Fri 05:43:36 AM 50.3035 -5.8336 77° East 466 536 35,500 3,750 Level FlightAware UK
Fri 05:43:42 AM 50.3050 -5.8220 77° East 475 547 37,000  Climbing FlightAware ADS-B
Fri 05:44:00 AM 50.3155 -5.7536 77° East 468 539 35,500  Descending FlightAware UK
Fri 05:44:27 AM 50.3280 -5.6700 77° East 474 545 37,000  Climbing FlightAware ADS-B
Fri 05:45:00 AM 50.3452 -5.5538 77° East 466 536 35,500  Descending FlightAware UK
Fri 05:45:07 AM 50.3480 -5.5370 77° East 474 545 37,000  Climbing FlightAware ADS-B
Fri 05:45:36 AM 50.3627 -5.4338 77° East 466 536 35,500  Descending FlightAware UK
Fri 05:45:52 AM 50.3690 -5.3890 77° East 473 544 37,000  Climbing FlightAware ADS-B
Fri 05:46:12 AM 50.3801 -5.3140 77° East 468 539 35,500  Descending FlightAware UK
Fri 05:46:32 AM 50.3890 -5.2530 77° East 472 543 37,000  Climbing FlightAware ADS-B
Fri 05:47:06 AM 50.4062 -5.1344 77° East 466 536 35,500  Descending FlightAware UK
Fri 05:47:12 AM 50.4080 -5.1240 77° East 471 542 37,000  Climbing FlightAware ADS-B
Fri 05:47:30 AM 50.4177 -5.0545 77° East 464 534 35,500 -2,500 Descending FlightAware UK
Fri 05:47:48 AM 50.4262 -4.9940 78° East 464 534 35,500 3,111 Level FlightAware UK
Fri 05:47:57 AM 50.4290 -4.9760 78° East 471 542 36,900 -800 Climbing FlightAware ADS-B
Fri 05:48:18 AM 50.4402 -4.8943 78° East 466 536 35,100 -300 Descending FlightAware UK
Fri 05:48:37 AM 50.4480 -4.8410 78° East 469 540 36,700 -333 Climbing FlightAware ADS-B
Fri 05:48:54 AM 50.4570 -4.7750 78° East 472 543 34,900 -3,600 Descending FlightAware UK
Fri 05:49:12 AM 50.4653 -4.7150 78° East 474 545 34,600 2,571 Descending FlightAware UK
Fri 05:49:22 AM 50.4680 -4.6970 78° East 477 549 36,100 1,680 Climbing FlightAware ADS-B
Fri 05:50:02 AM 50.4880 -4.5540 78° East 470 541 36,000 -1,714 Descending FlightAware ADS-B
Fri 05:50:18 AM 50.4962 -4.4939 78° East 466 536 34,500 -1,957 Descending FlightAware UK
Fri 05:50:48 AM 50.5098 -4.3941 78° East 466 536 34,500 2,308 Level FlightAware UK
Fri 05:50:57 AM 50.5120 -4.3760 78° East 469 540 36,000  Climbing FlightAware ADS-B
Fri 05:51:18 AM 50.5233 -4.2945 78° East 464 534 34,500  Descending FlightAware UK
Fri 05:51:42 AM 50.5320 -4.2280 78° East 469 540 36,000 1,406 Climbing FlightAware ADS-B
Fri 05:52:22 AM 50.5510 -4.0880 78° East 470 541 36,000  Level FlightAware ADS-B
Fri 05:52:57 AM 50.5650 -3.9820 78° East 469 540 36,000  Level FlightAware ADS-B
Fri 05:53:28 AM 50.5811 -3.8625 78° East 470 541 36,000  Level FlightAware ADS-B
Fri 05:54:10 AM 50.5985 -3.7244 79° East 470 541 36,000 -1,429 Level FlightAware ADS-B
Fri 05:54:31 AM 50.6042 -3.6527 79° East 468 539 34,500  Descending FlightAware UK
Fri 05:54:45 AM 50.6082 -3.6040 79° East 465 535 36,000  Climbing FlightAware ADS-B
Fri 05:55:01 AM 50.6121 -3.5524 79° East 456 525 34,500 -400 Descending FlightAware UK
Fri 05:55:15 AM 50.6156 -3.5041 79° East 454 522 35,800 -1,200 Climbing FlightAware ADS-B
Fri 05:55:31 AM 50.6190 -3.4535 79° East 442 509 33,900 -1,459 Descending FlightAware UK
Fri 05:55:52 AM 50.6210 -3.4040 79° East 446 513 34,900 -2,000 Climbing FlightAware ADS-B
Fri 05:56:31 AM 50.6270 -3.2607 79° East 432 497 31,900 -2,000 Descending FlightAware UK
Fri 05:56:37 AM 50.6280 -3.2540 79° East 436 502 33,400 -1,750 Climbing FlightAware ADS-B
Fri 05:56:55 AM 50.6318 -3.1854 79° East 428 493 31,200 -1,950 Descending FlightAware UK
Fri 05:57:17 AM 50.6350 -3.1310 79° East 428 493 32,100 -1,857 Climbing FlightAware ADS-B
Fri 05:57:37 AM 50.6407 -3.0556 79° East 418 481 29,900 -1,650 Descending FlightAware UK
Fri 05:57:57 AM 50.6450 -3.0060 79° East 418 481 31,000 1,029 Climbing FlightAware ADS-B
Fri 05:58:12 AM 50.6488 -2.9503 84° East 414 476 30,500 -4,588 Descending FlightAware ADS-B
Fri 05:58:31 AM 50.6528 -2.8938 84° East 400 460 28,400 -1,400 Descending FlightAware UK
Fri 05:58:42 AM 50.6540 -2.8780 84° East 405 466 29,800 -1,600 Climbing FlightAware ADS-B
Fri 05:59:01 AM 50.6590 -2.8065 84° East 392 451 27,600 -1,650 Descending FlightAware UK
Fri 05:59:22 AM 50.6620 -2.7540 84° East 395 455 28,700 -1,333 Climbing FlightAware ADS-B
Fri 05:59:37 AM 50.6657 -2.7036 84° East 384 442 26,800 -4,182 Descending FlightAware UK
Fri 05:59:55 AM 50.6689 -2.6538 84° East 378 435 26,400 2,400 Descending FlightAware UK
Fri 06:00:02 AM 50.6700 -2.6400 84° East 378 435 27,800 346 Climbing FlightAware ADS-B
Fri 06:00:47 AM 50.6770 -2.5220 85° East 372 428 26,700 -2,954 Descending FlightAware ADS-B
Fri 06:01:07 AM 50.6817 -2.4586 85° East 368 423 24,600 -1,350 Descending FlightAware UK
Fri 06:01:27 AM 50.6840 -2.4190 85° East 361 415 25,800 480 Climbing FlightAware ADS-B
Fri 06:01:57 AM 50.6853 -2.3305 89° East 356 410 25,000 -3,462 Descending FlightAware ADS-B
Fri 06:02:19 AM 50.6855 -2.2718 89° East 354 407 22,800 -1,742 Descending FlightAware UK
Fri 06:02:28 AM 50.6858 -2.2496 89° East 356 410 24,100 -1,548 Climbing FlightAware ADS-B
Fri 06:02:50 AM 50.6862 -2.1937 89° East 354 407 22,000 -1,400 Descending FlightAware UK
Fri 06:02:58 AM 50.6863 -2.1711 89° East 360 414 23,400 -1,400 Climbing FlightAware ADS-B
Fri 06:03:20 AM 50.6869 -2.1152 89° East 356 410 21,300 -1,500 Descending FlightAware UK
Fri 06:03:30 AM 50.6867 -2.0868 89° East 362 417 22,600 625 Climbing FlightAware ADS-B
Fri 06:04:08 AM 50.6874 -1.9882 89° East 360 414 21,800 -2,806 Descending FlightAware ADS-B
Fri 06:04:32 AM 50.6878 -1.9259 89° East 344 396 19,700 -1,500 Descending FlightAware UK
Fri 06:04:40 AM 50.6878 -1.9051 89° East 352 405 21,000 -1,500 Climbing FlightAware ADS-B
Fri 06:04:56 AM 50.6881 -1.8654 89° East 342 394 19,100 -1,355 Descending FlightAware UK
Fri 06:05:11 AM 50.6882 -1.8290 89° East 345 397 20,300 -1,333 Climbing FlightAware ADS-B
Fri 06:05:32 AM 50.6886 -1.7752 89° East 338 389 18,300 -1,400 Descending FlightAware UK
Fri 06:05:41 AM 50.6885 -1.7531 89° East 340 391 19,600 900 Climbing FlightAware ADS-B
Fri 06:06:12 AM 50.6890 -1.6764 89° East 334 384 18,900 -1,065 Descending FlightAware ADS-B
Fri 06:06:43 AM 50.6894 -1.6038 89° East 321 369 18,500 -2,679 Descending FlightAware ADS-B
Fri 06:07:08 AM 50.6939 -1.5460 89° East 312 359 16,400 -1,455 Descending FlightAware UK
Fri 06:07:16 AM 50.6959 -1.5285 89° East 314 361 17,700 769 Climbing FlightAware ADS-B
Fri 06:07:47 AM 50.7041 -1.4586 79° East 315 362 16,900 -3,231 Descending FlightAware ADS-B
Fri 06:08:08 AM 50.7098 -1.4113 79° East 306 352 14,900 -1,355 Descending FlightAware UK
Fri 06:08:18 AM 50.7123 -1.3896 79° East 312 359 16,200 1,500 Climbing FlightAware ADS-B
Fri 06:08:40 AM 50.7182 -1.3406 79° East 308 354 15,700 -1,286 Descending FlightAware ADS-B
Fri 06:09:00 AM 50.7234 -1.2976 79° East 304 350 15,300 -1,200 Descending FlightAware ADS-B
Fri 06:09:05 AM 50.7255 -1.2857 74° East 303 349 15,200 -923 Descending FlightAware ADS-B
Fri 06:09:13 AM 50.7297 -1.2712 65° Northeast 299 344 15,100 -1,125 Descending FlightAware ADS-B
Fri 06:09:21 AM 50.7368 -1.2567 52° Northeast 294 338 14,900 -1,500 Descending FlightAware ADS-B
Fri 06:09:33 AM 50.7492 -1.2393 42° Northeast 293 337 14,600 -1,256 Descending FlightAware ADS-B
Fri 06:10:04 AM 50.7814 -1.1989 38° Northeast 294 338 14,000 -3,064 Descending FlightAware ADS-B
Fri 06:10:20 AM 50.7991 -1.1763 38° Northeast 292 336 12,200 -600 Descending FlightAware UK
Fri 06:10:34 AM 50.8128 -1.1587 38° Northeast 282 325 13,700 1,149 Climbing FlightAware ADS-B
Fri 06:11:07 AM 50.8477 -1.1142 39° Northeast 300 345 13,100 -1,053 Descending FlightAware ADS-B
Fri 06:11:31 AM 50.8733 -1.0810 39° Northeast 302 348 12,700 -982 Descending FlightAware ADS-B
Fri 06:12:02 AM 50.9041 -1.0346 44° Northeast 303 349 12,200 -968 Descending FlightAware ADS-B
Fri 06:12:33 AM 50.9358 -0.9875 43° Northeast 298 343 11,700 -952 Descending FlightAware ADS-B
Fri 06:13:05 AM 50.9685 -0.9403 42° Northeast 294 338 11,200 -677 Descending FlightAware ADS-B
Fri 06:13:35 AM 50.9987 -0.8969 42° Northeast 294 338 11,000 -197 Descending FlightAware ADS-B
Fri 06:14:06 AM 51.0289 -0.8530 42° Northeast 294 338 11,000  Level FlightAware ADS-B
Fri 06:14:36 AM 51.0591 -0.8091 42° Northeast 293 337 11,000  Level FlightAware ADS-B
Fri 06:15:08 AM 51.0914 -0.7618 43° Northeast 294 338 11,000  Level FlightAware ADS-B
Fri 06:15:39 AM 51.1221 -0.7169 43° Northeast 293 337 11,000  Level FlightAware ADS-B
Fri 06:16:09 AM 51.1521 -0.6730 43° Northeast 293 337 11,000  Level FlightAware ADS-B
Fri 06:16:40 AM 51.1814 -0.6298 43° Northeast 275 316 11,000 -1,778 Level FlightAware ADS-B
Fri 06:17:03 AM 51.2024 -0.5989 43° Northeast 260 299 9,400 -375 Descending FlightAware UK
Fri 06:17:12 AM 51.2099 -0.5878 43° Northeast 255 293 10,800 1,050 Climbing FlightAware ADS-B
Fri 06:17:43 AM 51.2369 -0.5479 43° Northeast 255 293 10,100 -1,277 Descending FlightAware ADS-B
Fri 06:17:59 AM 51.2507 -0.5276 43° Northeast 253 291 9,800 -1,161 Descending FlightAware ADS-B
Fri 06:18:14 AM 51.2640 -0.5080 43° Northeast 253 291 9,500 -1,161 Descending FlightAware ADS-B
Fri 06:18:30 AM 51.2771 -0.4887 43° Northeast 252 290 9,200 -1,034 Descending FlightAware ADS-B
Fri 06:18:43 AM 51.2885 -0.4716 43° Northeast 254 292 9,000 -429 Descending FlightAware ADS-B
Fri 06:18:58 AM 51.3013 -0.4525 43° Northeast 252 290 9,000  Level FlightAware ADS-B
Fri 06:19:14 AM 51.3147 -0.4327 43° Northeast 251 289 9,000  Level FlightAware ADS-B
Fri 06:19:24 AM 51.3233 -0.4198 43° Northeast 252 290 9,000  Level FlightAware ADS-B
Fri 06:19:27 AM 51.3258 -0.4156 46° Northeast 253 291 9,000  Level FlightAware ADS-B
Fri 06:19:30 AM 51.3284 -0.4105 51° Northeast 254 292 9,000  Level FlightAware ADS-B
Fri 06:19:34 AM 51.3306 -0.4045 59° Northeast 256 295 9,000  Level FlightAware ADS-B
Fri 06:19:39 AM 51.3327 -0.3957 69° East 258 297 9,000  Level FlightAware ADS-B
Fri 06:19:44 AM 51.3336 -0.3867 81° East 259 298 9,000  Level FlightAware ADS-B
Fri 06:19:47 AM 51.3337 -0.3804 89° East 261 300 9,000  Level FlightAware ADS-B
Fri 06:19:53 AM 51.3327 -0.3693 98° East 263 303 9,000  Level FlightAware ADS-B
Fri 06:19:57 AM 51.3314 -0.3626 107° East 264 304 9,000  Level FlightAware ADS-B
Fri 06:20:00 AM 51.3295 -0.3560 115° Southeast 263 303 9,000  Level FlightAware ADS-B
Fri 06:20:07 AM 51.3244 -0.3453 127° Southeast 264 304 9,000  Level FlightAware ADS-B
Fri 06:20:22 AM 51.3102 -0.3287 144° Southeast 260 299 9,000  Level FlightAware ADS-B
Fri 06:20:37 AM 51.2947 -0.3135 148° Southeast 263 303 9,000  Level FlightAware ADS-B
Fri 06:20:50 AM 51.2812 -0.3017 151° Southeast 262 302 9,000  Level FlightAware ADS-B
Fri 06:21:03 AM 51.2651 -0.2986 173° South 259 298 9,000  Level FlightAware ADS-B
Fri 06:21:07 AM 51.2606 -0.3002 193° South 258 297 9,000  Level FlightAware ADS-B
Fri 06:21:12 AM 51.2559 -0.3031 201° Southwest 257 296 9,000  Level FlightAware ADS-B
Fri 06:21:16 AM 51.2511 -0.3076 210° Southwest 255 293 9,000  Level FlightAware ADS-B
Fri 06:21:21 AM 51.2468 -0.3133 220° Southwest 252 290 9,000  Level FlightAware ADS-B
Fri 06:21:29 AM 51.2416 -0.3242 233° Southwest 249 287 9,000 -333 Level FlightAware ADS-B
Fri 06:21:39 AM 51.2378 -0.3413 250° West 247 284 8,900 -462 Descending FlightAware ADS-B
Fri 06:21:42 AM 51.2374 -0.3476 264° West 246 283 8,900 -1,000 Level FlightAware ADS-B
Fri 06:21:45 AM 51.2374 -0.3530 270° West 246 283 8,800 -1,500 Descending FlightAware ADS-B
Fri 06:21:50 AM 51.2382 -0.3613 279° West 246 283 8,700 -667 Descending FlightAware ADS-B
Fri 06:21:54 AM 51.2397 -0.3684 289° West 244 281 8,700 -857 Level FlightAware ADS-B
Fri 06:21:57 AM 51.2413 -0.3738 296° West 243 280 8,600 -857 Descending FlightAware ADS-B
Fri 06:22:01 AM 51.2433 -0.3789 302° West 242 278 8,600 -857 Level FlightAware ADS-B
Fri 06:22:04 AM 51.2454 -0.3830 309° West 241 277 8,500 -857 Descending FlightAware ADS-B
Fri 06:22:08 AM 51.2484 -0.3877 316° Northwest 240 276 8,500 -750 Level FlightAware ADS-B
Fri 06:22:12 AM 51.2520 -0.3922 322° Northwest 239 275 8,400 -1,286 Descending FlightAware ADS-B
Fri 06:22:22 AM 51.2619 -0.4021 328° Northwest 239 275 8,200 -889 Descending FlightAware ADS-B
Fri 06:22:39 AM 51.2776 -0.4189 326° Northwest 240 276 8,000 -364 Descending FlightAware ADS-B
Fri 06:22:55 AM 51.2920 -0.4337 327° Northwest 238 274 8,000  Level FlightAware ADS-B
Fri 06:23:10 AM 51.3063 -0.4481 328° Northwest 239 275 8,000  Level FlightAware ADS-B
Fri 06:23:15 AM 51.3111 -0.4517 335° Northwest 239 275 8,000  Level FlightAware ADS-B
Fri 06:23:23 AM 51.3198 -0.4547 348° North 243 280 8,000  Level FlightAware ADS-B
Fri 06:23:27 AM 51.3244 -0.4546 North 242 278 8,000  Level FlightAware ADS-B
Fri 06:23:32 AM 51.3299 -0.4530 10° North 244 281 8,000  Level FlightAware ADS-B
Fri 06:23:37 AM 51.3353 -0.4499 19° North 246 283 8,000  Level FlightAware ADS-B
Fri 06:23:42 AM 51.3400 -0.4457 29° Northeast 249 287 8,000  Level FlightAware ADS-B
Fri 06:23:46 AM 51.3440 -0.4407 38° Northeast 251 289 8,000  Level FlightAware ADS-B
Fri 06:23:50 AM 51.3466 -0.4363 47° Northeast 252 290 8,000  Level FlightAware ADS-B
Fri 06:23:55 AM 51.3501 -0.4281 56° Northeast 254 292 8,000  Level FlightAware ADS-B
Fri 06:23:58 AM 51.3516 -0.4229 65° Northeast 255 293 8,000  Level FlightAware ADS-B
Fri 06:24:02 AM 51.3530 -0.4159 72° East 254 292 8,000  Level FlightAware ADS-B
Fri 06:24:07 AM 51.3539 -0.4059 82° East 256 295 8,000  Level FlightAware ADS-B
Fri 06:24:11 AM 51.3538 -0.3999 92° East 256 295 8,000  Level FlightAware ADS-B
Fri 06:24:16 AM 51.3524 -0.3891 102° East 257 296 8,000  Level FlightAware ADS-B
Fri 06:24:21 AM 51.3502 -0.3803 112° Southeast 258 297 8,000 -667 Level FlightAware ADS-B
Fri 06:24:25 AM 51.3478 -0.3740 121° Southeast 260 299 7,900 -1,200 Descending FlightAware ADS-B
Fri 06:24:31 AM 51.3430 -0.3655 132° Southeast 262 302 7,800 -1,091 Descending FlightAware ADS-B
Fri 06:24:36 AM 51.3381 -0.3594 142° Southeast 261 300 7,700 -667 Descending FlightAware ADS-B
Fri 06:24:40 AM 51.3342 -0.3549 144° Southeast 260 299 7,700 -947 Level FlightAware ADS-B
Fri 06:24:55 AM 51.3190 -0.3401 149° Southeast 258 297 7,400 -1,000 Descending FlightAware ADS-B
Fri 06:25:10 AM 51.3034 -0.3259 150° Southeast 254 292 7,200 -727 Descending FlightAware ADS-B
Fri 06:25:28 AM 51.2850 -0.3092 150° Southeast 257 296 7,000 -500 Descending FlightAware ADS-B
Fri 06:25:34 AM 51.2784 -0.3048 157° South 255 293 7,000  Level FlightAware ADS-B
Fri 06:25:40 AM 51.2719 -0.3026 168° South 254 292 7,000  Level FlightAware ADS-B
Fri 06:25:46 AM 51.2648 -0.3024 179° South 251 289 7,000  Level FlightAware ADS-B
Fri 06:25:54 AM 51.2556 -0.3058 193° South 248 285 7,000  Level FlightAware ADS-B
Fri 06:25:58 AM 51.2516 -0.3086 204° Southwest 246 283 7,000  Level FlightAware ADS-B
Fri 06:26:04 AM 51.2460 -0.3147 214° Southwest 244 281 7,000  Level FlightAware ADS-B
Fri 06:26:09 AM 51.2426 -0.3201 225° Southwest 241 277 7,000  Level FlightAware ADS-B
Fri 06:26:13 AM 51.2399 -0.3259 233° Southwest 240 276 7,000  Level FlightAware ADS-B
Fri 06:26:20 AM 51.2366 -0.3368 244° Southwest 238 274 7,000  Level FlightAware ADS-B
Fri 06:26:24 AM 51.2354 -0.3440 255° West 237 273 7,000  Level FlightAware ADS-B
Fri 06:26:28 AM 51.2350 -0.3515 265° West 236 272 7,000  Level FlightAware ADS-B
Fri 06:26:32 AM 51.2352 -0.3580 273° West 235 270 7,000  Level FlightAware ADS-B
Fri 06:26:36 AM 51.2360 -0.3646 281° West 233 268 7,000  Level FlightAware ADS-B
Fri 06:26:42 AM 51.2385 -0.3745 292° West 233 268 7,000  Level FlightAware ADS-B
Fri 06:26:46 AM 51.2403 -0.3793 301° West 233 268 7,000  Level FlightAware ADS-B
Fri 06:26:53 AM 51.2455 -0.3883 313° West 232 267 7,000  Level FlightAware ADS-B
Fri 06:26:57 AM 51.2493 -0.3928 323° Northwest 232 267 7,000  Level FlightAware ADS-B
Fri 06:27:03 AM 51.2543 -0.3978 328° Northwest 232 267 7,000  Level FlightAware ADS-B
Fri 06:27:19 AM 51.2698 -0.4119 330° Northwest 236 272 7,000  Level FlightAware ADS-B
Fri 06:27:37 AM 51.2866 -0.4276 330° Northwest 233 268 7,000  Level FlightAware ADS-B
Fri 06:27:42 AM 51.2913 -0.4316 332° Northwest 233 268 7,000  Level FlightAware ADS-B
Fri 06:27:47 AM 51.2960 -0.4348 337° Northwest 235 270 7,000  Level FlightAware ADS-B
Fri 06:27:52 AM 51.3014 -0.4371 345° North 238 274 7,000  Level FlightAware ADS-B
Fri 06:27:58 AM 51.3078 -0.4378 356° North 239 275 7,000  Level FlightAware ADS-B
Fri 06:28:03 AM 51.3135 -0.4367 North 239 275 7,000  Level FlightAware ADS-B
Fri 06:28:10 AM 51.3206 -0.4329 18° North 242 278 7,000  Level FlightAware ADS-B
Fri 06:28:14 AM 51.3244 -0.4295 30° Northeast 244 281 7,000  Level FlightAware ADS-B
Fri 06:28:20 AM 51.3297 -0.4225 39° Northeast 246 283 7,000  Level FlightAware ADS-B
Fri 06:28:34 AM 51.3385 -0.4011 57° Northeast 250 288 7,000 -207 Level FlightAware ADS-B
Fri 06:28:49 AM 51.3459 -0.3756 65° Northeast 252 290 6,900 -600 Descending FlightAware ADS-B
Fri 06:29:04 AM 51.3533 -0.3500 65° Northeast 250 288 6,700 -545 Descending FlightAware ADS-B
Fri 06:29:22 AM 51.3617 -0.3209 65° Northeast 247 284 6,600 -522 Descending FlightAware ADS-B
Fri 06:29:27 AM 51.3638 -0.3119 69° East 249 287 6,500 -667 Descending FlightAware ADS-B
Fri 06:29:31 AM 51.3652 -0.3040 74° East 250 288 6,500 -667 Level FlightAware ADS-B
Fri 06:29:36 AM 51.3666 -0.2953 76° East 250 288 6,400 -571 Descending FlightAware ADS-B
Fri 06:29:52 AM 51.3702 -0.2672 78° East 251 289 6,300 -581 Descending FlightAware ADS-B
Fri 06:30:07 AM 51.3734 -0.2397 79° East 252 290 6,100 -774 Descending FlightAware ADS-B
Fri 06:30:23 AM 51.3768 -0.2108 79° East 251 289 5,900 -621 Descending FlightAware ADS-B
Fri 06:30:36 AM 51.3795 -0.1867 80° East 250 288 5,800 -429 Descending FlightAware ADS-B
Fri 06:30:51 AM 51.3827 -0.1593 79° East 248 285 5,700 -581 Descending FlightAware ADS-B
Fri 06:31:07 AM 51.3860 -0.1315 79° East 241 277 5,500 -581 Descending FlightAware ADS-B
Fri 06:31:22 AM 51.3891 -0.1056 79° East 229 264 5,400 -581 Descending FlightAware ADS-B
Fri 06:31:38 AM 51.3922 -0.0804 79° East 220 253 5,200 -774 Descending FlightAware ADS-B
Fri 06:31:53 AM 51.3952 -0.0568 78° East 212 244 5,000 -632 Descending FlightAware ADS-B
Fri 06:31:57 AM 51.3965 -0.0500 73° East 209 241 5,000  Level FlightAware ADS-B
Fri 06:32:00 AM 51.3977 -0.0457 66° East 205 236 5,000 -857 Level FlightAware ADS-B
Fri 06:32:04 AM 51.3992 -0.0418 58° Northeast 203 234 4,900 -600 Descending FlightAware ADS-B
Fri 06:32:10 AM 51.4031 -0.0350 47° Northeast 199 229 4,900 -600 Level FlightAware ADS-B
Fri 06:32:14 AM 51.4059 -0.0318 36° Northeast 197 227 4,800 -857 Descending FlightAware ADS-B
Fri 06:32:17 AM 51.4084 -0.0298 26° Northeast 195 224 4,800  Level FlightAware ADS-B
Fri 06:32:20 AM 51.4109 -0.0284 19° North 193 222 4,800  Level FlightAware ADS-B
Fri 06:32:24 AM 51.4145 -0.0272 12° North 193 222 4,800 -750 Level FlightAware ADS-B
Fri 06:32:28 AM 51.4180 -0.0267 North 192 221 4,700 -500 Descending FlightAware ADS-B
Fri 06:32:36 AM 51.4255 -0.0263 North 191 220 4,700 -522 Level FlightAware ADS-B
Fri 06:32:51 AM 51.4387 -0.0264 360° North 192 221 4,500 -545 Descending FlightAware ADS-B
Fri 06:32:58 AM 51.4446 -0.0278 351° North 191 220 4,500  Level FlightAware ADS-B
Fri 06:33:01 AM 51.4473 -0.0293 341° North 190 219 4,500  Level FlightAware ADS-B
Fri 06:33:05 AM 51.4504 -0.0320 331° Northwest 191 220 4,500 -600 Level FlightAware ADS-B
Fri 06:33:11 AM 51.4540 -0.0371 319° Northwest 190 219 4,400 -545 Descending FlightAware ADS-B
Fri 06:33:16 AM 51.4570 -0.0431 309° West 190 219 4,400  Level FlightAware ADS-B
Fri 06:33:25 AM 51.4604 -0.0546 295° West 190 219 4,400  Level FlightAware ADS-B
Fri 06:33:34 AM 51.4629 -0.0658 290° West 185 213 4,400  Level FlightAware ADS-B
Fri 06:33:38 AM 51.4638 -0.0710 286° West 183 211 4,400 -667 Level FlightAware ADS-B
Fri 06:33:43 AM 51.4644 -0.0779 278° West 183 211 4,300 -600 Descending FlightAware ADS-B
Fri 06:33:58 AM 51.4650 -0.0981 273° West 183 211 4,200 -500 Descending FlightAware ADS-B
Fri 06:34:07 AM 51.4653 -0.1102 272° West 182 209 4,100 -720 Descending FlightAware ADS-B
Fri 06:34:23 AM 51.4654 -0.1321 270° West 178 205 3,900 -774 Descending FlightAware ADS-B
Fri 06:34:38 AM 51.4655 -0.1514 270° West 171 197 3,700 -1,000 Descending FlightAware ADS-B
Fri 06:34:53 AM 51.4655 -0.1698 270° West 173 199 3,400 -1,448 Descending FlightAware ADS-B
Fri 06:35:07 AM 51.4654 -0.1878 269° West 163 188 3,000 -1,286 Descending FlightAware ADS-B
Fri 06:35:21 AM 51.4654 -0.2040 270° West 155 178 2,800 -1,034 Descending FlightAware ADS-B
Fri 06:35:36 AM 51.4654 -0.2213 270° West 156 180 2,500 -900 Descending FlightAware ADS-B
Fri 06:36:01 AM 51.4654 -0.2498 270° West 161 185 2,200 -789 Descending FlightAware ADS-B
Fri 06:36:52 AM 51.4650 -0.3050 269° West 156 180 1,500 -815 Descending FlightAware ADS-B
Fri 06:37:22 AM 51.4650 -0.3370 270° West 152 175 1,100 -764 Descending FlightAware ADS-B
Fri 06:37:47 AM 51.4650 -0.3650 270° West 137 158 800 -764 Descending FlightAware ADS-B
Fri 06:38:17 AM 51.4650 -0.3940 270° West 132 152 400 -720 Descending FlightAware ADS-B
Fri 06:38:37 AM 51.4650 -0.4160 270° West 133 153 200 -277 Descending FlightAware ADS-B
Fri 06:39:22 AM 51.4650 -0.4400 270° West 133 153 100 -133 Descending FlightAware ADS-B

Login

Don't have an account? Register now (free) for customized features, flight alerts, and more!